createdAt,value
2023-02-22T00:04:07.590Z,9.69
2023-02-22T00:09:30.405Z,9.69
2023-02-22T00:14:51.292Z,9.65
2023-02-22T00:20:14.291Z,9.61
2023-02-22T00:25:35.561Z,9.57
2023-02-22T00:30:56.462Z,9.56
2023-02-22T00:36:17.590Z,9.56
2023-02-22T00:41:38.349Z,9.58
2023-02-22T00:46:59.108Z,9.57
2023-02-22T00:52:20.353Z,9.57
2023-02-22T00:57:41.307Z,9.58
2023-02-22T01:03:02.334Z,9.57
2023-02-22T01:08:25.262Z,9.55
2023-02-22T01:13:46.495Z,9.54
2023-02-22T01:19:07.352Z,9.54
2023-02-22T01:24:28.210Z,9.55
2023-02-22T01:29:50.159Z,9.52
2023-02-22T01:35:14.278Z,9.53
2023-02-22T01:40:42.085Z,9.50
2023-02-22T01:46:21.142Z,9.46
2023-02-22T01:51:47.986Z,9.44
2023-02-22T01:57:27.597Z,9.42
2023-02-22T02:02:51.602Z,9.44
2023-02-22T02:08:36.283Z,9.45
2023-02-22T02:13:57.520Z,9.44
2023-02-22T02:19:32.128Z,9.44
2023-02-22T02:25:08.488Z,9.44
2023-02-22T02:30:54.264Z,9.46
2023-02-22T02:36:42.951Z,9.46
2023-02-22T02:42:05.397Z,9.43
2023-02-22T02:47:31.486Z,9.41
2023-02-22T02:52:53.786Z,9.41
2023-02-22T02:58:23.828Z,9.39
2023-02-22T03:04:20.477Z,9.40
2023-02-22T03:09:54.893Z,9.39
2023-02-22T03:15:33.029Z,9.39
2023-02-22T03:21:00.490Z,9.38
2023-02-22T03:26:24.696Z,9.38
2023-02-22T03:31:53.420Z,9.38
2023-02-22T03:37:18.713Z,9.39
2023-02-22T03:42:43.377Z,9.38
2023-02-22T03:48:12.520Z,9.41
2023-02-22T03:53:33.739Z,9.39
2023-02-22T03:58:54.536Z,9.39
2023-02-22T04:04:16.464Z,9.38
2023-02-22T04:09:38.154Z,9.37
2023-02-22T04:14:59.589Z,9.38
2023-02-22T04:20:20.424Z,9.37
2023-02-22T04:25:47.021Z,9.34
2023-02-22T04:31:11.036Z,9.34
2023-02-22T04:36:32.690Z,9.38
2023-02-22T04:41:54.699Z,9.36
2023-02-22T04:47:15.448Z,9.32
2023-02-22T04:52:36.435Z,9.34
2023-02-22T04:57:57.585Z,9.34
2023-02-22T05:03:18.761Z,9.32
2023-02-22T05:08:39.622Z,9.32
2023-02-22T05:14:00.401Z,9.29
2023-02-22T05:19:21.251Z,9.22
2023-02-22T05:24:42.059Z,9.17
2023-02-22T05:30:03.784Z,9.08
2023-02-22T05:35:24.841Z,9.07
2023-02-22T05:40:46.050Z,9.04
2023-02-22T05:46:11.200Z,9.04
2023-02-22T05:51:33.622Z,9.02
2023-02-22T05:56:54.753Z,9.07
2023-02-22T06:02:16.105Z,9.10
2023-02-22T06:07:37.727Z,9.06
2023-02-22T06:12:59.019Z,9.11
2023-02-22T06:18:20.178Z,9.13
2023-02-22T06:23:41.511Z,9.20
2023-02-22T06:29:02.561Z,9.24
2023-02-22T06:34:23.410Z,9.30
2023-02-22T06:39:44.468Z,9.34
2023-02-22T06:45:05.768Z,9.41
2023-02-22T06:50:29.013Z,9.47
2023-02-22T06:55:49.788Z,9.50
2023-02-22T07:01:10.737Z,9.49
2023-02-22T07:06:31.437Z,9.61
2023-02-22T07:11:52.335Z,9.71
2023-02-22T07:17:13.113Z,9.77
2023-02-22T07:22:33.854Z,9.86
2023-02-22T07:27:54.639Z,9.88
2023-02-22T07:33:15.570Z,9.96
2023-02-22T07:38:36.384Z,10.11
2023-02-22T07:43:57.082Z,10.17
2023-02-22T07:49:17.972Z,10.20
2023-02-22T07:54:39.086Z,10.35
2023-02-22T08:00:00.158Z,10.56
2023-02-22T08:05:21.866Z,10.69
2023-02-22T08:10:42.930Z,10.75
2023-02-22T08:16:03.798Z,10.82
2023-02-22T08:21:24.872Z,10.77
2023-02-22T08:26:46.414Z,10.79
2023-02-22T08:32:07.551Z,10.82
2023-02-22T08:37:29.095Z,10.84
2023-02-22T08:42:50.235Z,10.80
2023-02-22T08:48:11.501Z,10.90
2023-02-22T08:53:32.941Z,11.01
2023-02-22T08:58:54.173Z,11.02
2023-02-22T09:04:15.423Z,11.12
2023-02-22T09:09:36.673Z,11.08
2023-02-22T09:14:57.723Z,11.26
2023-02-22T09:20:19.869Z,11.52
2023-02-22T09:25:41.210Z,11.59
2023-02-22T09:31:02.663Z,11.67
2023-02-22T09:36:26.116Z,11.66
2023-02-22T09:42:09.666Z,11.73
2023-02-22T09:47:40.394Z,11.82
2023-02-22T09:53:29.986Z,12.09
2023-02-22T09:58:54.970Z,12.31
2023-02-22T10:04:30.493Z,12.48
2023-02-22T10:09:51.559Z,12.82
2023-02-22T10:15:26.575Z,13.23
2023-02-22T10:21:13.300Z,13.68
2023-02-22T10:26:41.139Z,13.92
2023-02-22T10:32:04.513Z,14.10
2023-02-22T10:37:33.037Z,14.11
2023-02-22T10:42:53.652Z,14.18
2023-02-22T10:48:18.589Z,14.36
2023-02-22T10:53:39.370Z,14.60
2023-02-22T10:59:07.451Z,14.74
2023-02-22T11:04:28.443Z,14.46
2023-02-22T11:09:54.070Z,14.84
2023-02-22T11:15:18.934Z,14.78
2023-02-22T11:20:39.849Z,14.84
2023-02-22T11:26:14.356Z,14.72
2023-02-22T11:31:35.037Z,14.60
2023-02-22T11:36:56.657Z,14.80
2023-02-22T11:42:23.282Z,14.72
2023-02-22T11:47:53.258Z,14.92
2023-02-22T11:53:22.134Z,14.98
2023-02-22T11:59:34.543Z,14.80
2023-02-22T12:05:08.319Z,14.98
2023-02-22T12:10:55.503Z,14.86
2023-02-22T12:16:51.774Z,15.13
2023-02-22T12:22:21.480Z,15.14
2023-02-22T12:27:45.893Z,15.28
2023-02-22T12:33:14.905Z,15.24
2023-02-22T12:38:37.712Z,15.38
2023-02-22T12:44:18.203Z,14.93
2023-02-22T12:49:49.709Z,14.53
2023-02-22T12:55:23.313Z,14.53
2023-02-22T13:01:07.055Z,14.41
2023-02-22T13:07:13.259Z,14.31
2023-02-22T13:13:21.550Z,14.23
2023-02-22T13:19:04.397Z,14.20
2023-02-22T13:24:33.253Z,14.17
2023-02-22T13:29:58.976Z,13.76
2023-02-22T13:35:41.701Z,13.74
2023-02-22T13:41:08.719Z,13.75
2023-02-22T13:46:54.975Z,13.47
2023-02-22T13:52:17.960Z,13.39
2023-02-22T13:57:48.442Z,13.23
2023-02-22T14:03:17.097Z,13.16
2023-02-22T14:08:39.373Z,13.11
2023-02-22T14:14:10.186Z,12.99
2023-02-22T14:19:31.314Z,13.12
2023-02-22T14:24:52.518Z,13.07
2023-02-22T14:30:30.849Z,12.96
2023-02-22T14:35:52.717Z,12.92
2023-02-22T14:41:14.991Z,12.84
2023-02-22T14:46:36.320Z,12.74
2023-02-22T14:52:05.196Z,12.63
2023-02-22T14:57:39.087Z,12.52
2023-02-22T15:03:00.360Z,12.47
2023-02-22T15:08:28.270Z,12.42
2023-02-22T15:13:53.444Z,12.22
2023-02-22T15:19:14.253Z,12.10
2023-02-22T15:24:36.861Z,12.01
2023-02-22T15:30:04.873Z,11.90
2023-02-22T15:35:28.429Z,11.90
2023-02-22T15:41:00.031Z,11.74
2023-02-22T15:46:21.375Z,11.63
2023-02-22T15:51:43.073Z,11.56
2023-02-22T15:57:04.426Z,11.46
2023-02-22T16:02:33.418Z,11.38
2023-02-22T16:07:54.862Z,11.31
2023-02-22T16:13:32.911Z,11.20
2023-02-22T16:19:14.918Z,11.02
2023-02-22T16:24:36.175Z,10.98
2023-02-22T16:30:24.042Z,10.86
2023-02-22T16:35:52.107Z,10.75
2023-02-22T16:41:13.839Z,10.66
2023-02-22T16:46:35.511Z,10.64
2023-02-22T16:51:59.700Z,10.57
2023-02-22T16:57:22.011Z,10.52
2023-02-22T17:02:45.503Z,10.48
2023-02-22T17:08:06.391Z,10.47
2023-02-22T17:13:27.631Z,10.41
2023-02-22T17:18:49.940Z,10.38
2023-02-22T17:24:12.594Z,10.36
2023-02-22T17:29:33.670Z,10.32
2023-02-22T17:34:54.310Z,10.28
2023-02-22T17:40:15.616Z,10.22
2023-02-22T17:45:40.974Z,10.19
2023-02-22T17:51:08.325Z,10.07
2023-02-22T17:56:29.458Z,10.08
2023-02-22T18:01:52.661Z,10.09
2023-02-22T18:07:14.314Z,10.08
2023-02-22T18:12:35.352Z,10.03
2023-02-22T18:17:56.459Z,9.98
2023-02-22T18:23:20.042Z,9.91
2023-02-22T18:28:40.947Z,9.85
2023-02-22T18:34:01.732Z,9.70
2023-02-22T18:39:22.489Z,9.63
2023-02-22T18:44:43.520Z,9.56
2023-02-22T18:50:04.962Z,9.41
2023-02-22T18:55:25.919Z,9.31
2023-02-22T19:00:48.966Z,9.21
2023-02-22T19:06:10.057Z,9.09
2023-02-22T19:11:30.985Z,9.01
2023-02-22T19:16:51.961Z,9.05
2023-02-22T19:22:15.810Z,9.00
2023-02-22T19:27:36.983Z,8.93
2023-02-22T19:32:58.262Z,8.92
2023-02-22T19:38:19.722Z,8.94
2023-02-22T19:43:40.713Z,8.91
2023-02-22T19:49:01.694Z,8.82
2023-02-22T19:54:24.147Z,8.78
2023-02-22T19:59:45.472Z,8.70
2023-02-22T20:05:10.183Z,8.68
2023-02-22T20:10:31.552Z,8.62
2023-02-22T20:15:53.530Z,8.59
2023-02-22T20:21:22.211Z,8.56
2023-02-22T20:26:43.170Z,8.54
2023-02-22T20:32:05.694Z,8.47
2023-02-22T20:37:27.034Z,8.42
2023-02-22T20:42:48.016Z,8.39
2023-02-22T20:48:09.255Z,8.37
2023-02-22T20:53:30.042Z,8.26
2023-02-22T20:58:53.633Z,8.24
2023-02-22T21:04:40.055Z,8.25
2023-02-22T21:10:01.134Z,8.19
2023-02-22T21:15:25.981Z,8.20
2023-02-22T21:20:48.290Z,8.21
2023-02-22T21:26:15.829Z,8.17
2023-02-22T21:31:37.232Z,8.18
2023-02-22T21:36:58.150Z,8.19
2023-02-22T21:42:19.142Z,8.16
2023-02-22T21:47:40.035Z,8.09
2023-02-22T21:53:00.776Z,8.08
2023-02-22T21:58:21.704Z,8.08
2023-02-22T22:03:46.272Z,8.09
2023-02-22T22:09:18.275Z,8.12
2023-02-22T22:14:40.375Z,8.10
2023-02-22T22:20:01.921Z,8.11
2023-02-22T22:25:24.408Z,8.06
2023-02-22T22:30:45.622Z,8.01
2023-02-22T22:36:06.920Z,8.02
2023-02-22T22:41:28.320Z,8.01
2023-02-22T22:46:50.118Z,7.99
2023-02-22T22:52:14.943Z,7.99
2023-02-22T22:57:36.494Z,7.95
2023-02-22T23:02:57.849Z,7.92
2023-02-22T23:08:20.917Z,7.89
2023-02-22T23:13:41.605Z,7.87
2023-02-22T23:19:02.584Z,7.83
2023-02-22T23:24:27.504Z,7.80
2023-02-22T23:29:49.718Z,7.72
2023-02-22T23:35:11.621Z,7.70
2023-02-22T23:40:32.624Z,7.68
2023-02-22T23:45:57.248Z,7.66
2023-02-22T23:51:20.988Z,7.67
2023-02-22T23:56:47.269Z,7.63
